Time;durP1;ratioP1;P1;durP2;ratioP2;P2;SDS_P1;SDS_P2;PMS_P1;PMS_P2;Temp;Humidity;BMP_temperature;BMP_pressure;BME280_temperature;BME280_humidity;BME280_pressure;Samples;Min_cycle;Max_cycle;Signal;HPM_P1;HPM_P2
2024/04/08 00:00:44;;;;;;;7.78;2.00;;;15.10;99.90;;;;;;5488992;26;20356;-92
2024/04/08 00:03:10;;;;;;;4.88;1.35;;;15.10;99.90;;;;;;5493300;26;20644;-92
2024/04/08 00:05:37;;;;;;;6.43;1.98;;;15.00;99.90;;;;;;5486303;26;20008;-92
2024/04/08 00:08:05;;;;;;;7.68;2.10;;;15.00;99.90;;;;;;5493496;26;20026;-91
2024/04/08 00:10:32;;;;;;;7.65;2.20;;;15.10;99.90;;;;;;5485522;26;19994;-92
2024/04/08 00:12:59;;;;;;;6.47;1.30;;;15.10;99.90;;;;;;5495397;26;20037;-92
2024/04/08 00:15:26;;;;;;;5.20;1.30;;;15.00;99.90;;;;;;5488200;26;20038;-91
2024/04/08 00:17:53;;;;;;;6.38;1.65;;;14.90;99.90;;;;;;5491833;26;20016;-92
2024/04/08 00:20:20;;;;;;;6.90;2.25;;;14.90;99.90;;;;;;5512357;26;20005;-92
2024/04/08 00:22:51;;;;;;;9.15;2.25;;;14.90;99.90;;;;;;5509502;26;19993;-92
2024/04/08 00:25:19;;;;;;;8.50;2.10;;;14.90;99.90;;;;;;5489192;26;20004;-92
2024/04/08 00:27:46;;;;;;;7.68;1.98;;;14.90;99.90;;;;;;5488202;26;20002;-93
2024/04/08 00:30:13;;;;;;;5.18;1.13;;;14.90;99.90;;;;;;5485166;26;20475;-91
2024/04/08 00:32:39;;;;;;;8.38;2.10;;;14.90;99.90;;;;;;5483726;26;20368;-91
2024/04/08 00:35:06;;;;;;;9.90;1.75;;;14.90;99.90;;;;;;5484310;26;19998;-92
2024/04/08 00:37:33;;;;;;;5.90;2.10;;;14.80;99.90;;;;;;5493693;26;20054;-92
2024/04/08 00:40:00;;;;;;;5.20;1.42;;;14.80;99.90;;;;;;5497915;26;20029;-91
2024/04/08 00:42:27;;;;;;;7.35;1.55;;;14.80;99.90;;;;;;5489461;26;20008;-92
2024/04/08 00:44:54;;;;;;;8.98;2.50;;;14.70;99.90;;;;;;5496449;26;20026;-93
2024/04/08 00:47:21;;;;;;;8.20;2.20;;;14.80;99.90;;;;;;5487460;26;20310;-92
2024/04/08 00:49:48;;;;;;;9.27;2.70;;;14.80;99.90;;;;;;5504586;26;20033;-92
2024/04/08 00:52:16;;;;;;;4.90;1.70;;;14.80;99.90;;;;;;5506477;26;20030;-92
2024/04/08 00:54:43;;;;;;;6.70;1.67;;;14.70;99.90;;;;;;5485340;26;20053;-92
2024/04/08 00:57:13;;;;;;;5.00;1.67;;;14.70;99.90;;;;;;5500988;26;20099;-92
2024/04/08 00:59:40;;;;;;;6.55;1.67;;;14.60;99.90;;;;;;5487411;26;20061;-92
2024/04/08 01:02:07;;;;;;;9.43;2.60;;;14.60;99.90;;;;;;5504800;26;20493;-92
2024/04/08 01:04:34;;;;;;;6.70;1.75;;;14.70;99.90;;;;;;5485952;26;20616;-92
2024/04/08 01:07:02;;;;;;;6.70;1.63;;;14.60;99.90;;;;;;5492568;26;20034;-92
2024/04/08 01:09:29;;;;;;;8.05;2.40;;;14.60;99.90;;;;;;5483706;26;20032;-92
2024/04/08 01:11:59;;;;;;;10.23;2.85;;;14.70;99.90;;;;;;5497187;26;20496;-92
2024/04/08 01:14:26;;;;;;;5.85;1.42;;;14.70;99.90;;;;;;5501109;26;20037;-92
2024/04/08 01:16:53;;;;;;;4.72;1.30;;;14.60;99.90;;;;;;5495620;26;20030;-92
2024/04/08 01:19:23;;;;;;;9.20;2.85;;;14.60;99.90;;;;;;5509256;26;20305;-92
2024/04/08 01:21:50;;;;;;;6.68;2.30;;;14.60;99.90;;;;;;5495302;26;19998;-91
2024/04/08 01:24:17;;;;;;;9.00;1.98;;;14.70;99.90;;;;;;5494026;25;19994;-91
2024/04/08 01:26:44;;;;;;;7.90;2.60;;;14.60;99.90;;;;;;5490119;26;19994;-92
2024/04/08 01:29:11;;;;;;;10.50;2.90;;;14.70;99.90;;;;;;5490404;26;20013;-92
2024/04/08 01:31:38;;;;;;;8.68;2.80;;;14.70;99.90;;;;;;5488893;26;20049;-92
2024/04/08 01:34:05;;;;;;;5.40;1.52;;;14.70;99.90;;;;;;5486685;26;20034;-93
2024/04/08 01:36:32;;;;;;;6.00;1.42;;;14.70;99.90;;;;;;5499097;26;20005;-91
2024/04/08 01:38:59;;;;;;;4.95;2.20;;;14.60;99.90;;;;;;5493136;26;20026;-92
2024/04/08 01:41:26;;;;;;;8.18;2.65;;;14.60;99.90;;;;;;5506656;26;20008;-91
2024/04/08 01:43:52;;;;;;;9.00;2.40;;;14.60;99.90;;;;;;5496342;26;20026;-92
2024/04/08 01:46:19;;;;;;;7.95;2.60;;;14.70;99.90;;;;;;5481114;26;20450;-91
2024/04/08 01:48:46;;;;;;;5.70;1.58;;;14.70;99.90;;;;;;5494211;26;19994;-91
2024/04/08 01:51:14;;;;;;;8.25;2.45;;;14.60;99.90;;;;;;5505977;26;20037;-91
2024/04/08 01:53:41;;;;;;;7.35;2.60;;;14.70;99.90;;;;;;5492467;26;20004;-91
2024/04/08 01:56:08;;;;;;;5.78;1.77;;;14.70;99.90;;;;;;5498909;26;20022;-92
2024/04/08 01:58:35;;;;;;;6.72;1.85;;;14.60;99.90;;;;;;5500536;26;20022;-91
2024/04/08 02:01:03;;;;;;;8.20;2.80;;;14.60;99.90;;;;;;5508667;25;20493;-92
2024/04/08 02:03:29;;;;;;;11.60;3.25;;;14.60;99.90;;;;;;5491316;26;20008;-92
2024/04/08 02:05:56;;;;;;;8.75;3.13;;;14.70;99.90;;;;;;5488586;26;20030;-92
2024/04/08 02:08:23;;;;;;;8.65;2.63;;;14.70;99.90;;;;;;5492676;26;20501;-92
2024/04/08 02:10:52;;;;;;;7.13;2.20;;;14.70;99.90;;;;;;5499951;26;19994;-93
2024/04/08 02:13:19;;;;;;;8.93;2.80;;;14.60;99.90;;;;;;5478933;26;20027;-91
2024/04/08 02:15:46;;;;;;;9.25;3.00;;;14.60;99.90;;;;;;5485349;26;19994;-93
2024/04/08 02:18:13;;;;;;;8.40;1.88;;;14.60;99.90;;;;;;5482296;26;19999;-92
2024/04/08 02:20:41;;;;;;;8.85;3.05;;;14.60;99.90;;;;;;5482478;26;20018;-92
2024/04/08 02:23:07;;;;;;;5.05;1.80;;;14.60;99.90;;;;;;5504458;26;20030;-92
2024/04/08 02:25:45;;;;;;;8.55;3.00;;;14.60;99.90;;;;;;5486520;26;20674;-92
2024/04/08 02:28:12;;;;;;;9.52;3.10;;;14.60;99.90;;;;;;5498934;26;20013;-93
2024/04/08 02:30:39;;;;;;;5.03;2.03;;;14.60;99.90;;;;;;5491157;26;20014;-92
2024/04/08 02:33:06;;;;;;;7.57;2.00;;;14.60;99.90;;;;;;5506460;26;20030;-92
2024/04/08 02:35:34;;;;;;;8.48;2.35;;;14.50;99.90;;;;;;5499574;26;20542;-92
2024/04/08 02:38:04;;;;;;;9.70;3.20;;;14.50;99.90;;;;;;5498581;26;20029;-93
2024/04/08 02:40:34;;;;;;;10.55;3.53;;;14.50;99.90;;;;;;5503340;26;20471;-91
2024/04/08 02:43:03;;;;;;;8.32;2.22;;;14.60;99.90;;;;;;5493831;26;20033;-91
2024/04/08 02:45:30;;;;;;;8.40;2.38;;;14.60;99.90;;;;;;5484775;26;19998;-92
2024/04/08 02:47:58;;;;;;;10.88;3.53;;;14.50;99.90;;;;;;5487932;26;19994;-92
2024/04/08 02:50:25;;;;;;;9.00;3.53;;;14.50;99.90;;;;;;5484354;26;20450;-91
2024/04/08 02:52:52;;;;;;;5.40;1.80;;;14.60;99.90;;;;;;5484206;26;20026;-92
2024/04/08 02:55:19;;;;;;;5.47;1.90;;;14.50;99.90;;;;;;5488349;26;19994;-92
2024/04/08 02:57:46;;;;;;;10.30;3.35;;;14.50;99.90;;;;;;5495521;26;20008;-91
2024/04/08 03:00:12;;;;;;;7.47;2.13;;;14.50;99.90;;;;;;5496689;26;19998;-91
2024/04/08 03:02:39;;;;;;;10.60;3.20;;;14.50;99.90;;;;;;5491046;26;20016;-92
2024/04/08 03:05:06;;;;;;;4.35;1.73;;;14.50;99.90;;;;;;5494450;26;20468;-92
2024/04/08 03:07:33;;;;;;;12.23;3.50;;;14.50;99.90;;;;;;5481343;26;20012;-93
2024/04/08 03:10:00;;;;;;;8.88;3.50;;;14.50;99.90;;;;;;5496278;26;20501;-92
2024/04/08 03:12:27;;;;;;;9.02;1.75;;;14.60;99.90;;;;;;5489638;26;20005;-91
2024/04/08 03:14:54;;;;;;;8.35;2.55;;;14.50;99.90;;;;;;5494401;26;19995;-92
2024/04/08 03:17:21;;;;;;;5.68;2.05;;;14.40;99.90;;;;;;5494184;26;20030;-92
2024/04/08 03:19:53;;;;;;;9.45;3.30;;;14.40;99.90;;;;;;5486120;26;20030;-92
2024/04/08 03:22:21;;;;;;;6.15;2.00;;;14.50;99.90;;;;;;5497458;26;20027;-92
2024/04/08 03:24:47;;;;;;;7.82;2.47;;;14.50;99.90;;;;;;5480374;26;20008;-92
2024/04/08 03:27:15;;;;;;;8.90;3.75;;;14.40;99.90;;;;;;5508316;26;20007;-92
2024/04/08 03:29:41;;;;;;;9.88;2.47;;;14.40;99.90;;;;;;5496930;25;20012;-91
2024/04/08 03:32:08;;;;;;;6.13;2.15;;;14.40;99.90;;;;;;5503172;26;20013;-91
2024/04/08 03:34:35;;;;;;;8.50;2.00;;;14.40;99.90;;;;;;5510453;26;20029;-92
2024/04/08 03:37:03;;;;;;;9.60;3.70;;;14.30;99.90;;;;;;5497514;26;19994;-91
2024/04/08 03:39:30;;;;;;;7.85;2.40;;;14.40;99.90;;;;;;5492243;26;20026;-93
2024/04/08 03:41:57;;;;;;;9.45;3.97;;;14.40;99.90;;;;;;5483381;26;19998;-92
2024/04/08 03:44:24;;;;;;;9.48;3.90;;;14.40;99.90;;;;;;5482648;26;20002;-92
2024/04/08 03:46:51;;;;;;;7.85;2.25;;;14.40;99.90;;;;;;5506288;26;20027;-92
2024/04/08 03:49:18;;;;;;;5.75;1.98;;;14.40;99.90;;;;;;5507491;26;19994;-92
2024/04/08 03:51:45;;;;;;;8.13;3.63;;;14.30;99.90;;;;;;5493843;26;20026;-92
2024/04/08 03:54:12;;;;;;;8.38;2.70;;;14.40;99.90;;;;;;5502495;26;20041;-92
2024/04/08 03:56:39;;;;;;;9.32;3.85;;;14.40;99.90;;;;;;5484697;26;20104;-93
2024/04/08 03:59:05;;;;;;;8.05;3.50;;;14.40;99.90;;;;;;5488026;26;20020;-92
2024/04/08 04:01:32;;;;;;;9.35;2.60;;;14.40;99.90;;;;;;5507869;26;20116;-92
2024/04/08 04:04:00;;;;;;;7.68;1.88;;;14.30;99.90;;;;;;5503446;26;19994;-92
2024/04/08 04:06:28;;;;;;;7.70;3.20;;;14.30;99.90;;;;;;5497163;26;19998;-91
2024/04/08 04:08:55;;;;;;;10.30;2.33;;;14.40;99.90;;;;;;5483560;26;20445;-92
2024/04/08 04:11:25;;;;;;;7.00;2.42;;;14.30;99.90;;;;;;5491634;26;20018;-92
2024/04/08 04:13:52;;;;;;;8.23;3.35;;;14.30;99.90;;;;;;5496409;26;20029;-92
2024/04/08 04:16:19;;;;;;;10.25;4.03;;;14.30;99.90;;;;;;5511492;25;20026;-91
2024/04/08 04:18:46;;;;;;;5.95;2.00;;;14.40;99.90;;;;;;5498010;26;20033;-93
2024/04/08 04:21:13;;;;;;;7.57;3.33;;;14.30;99.90;;;;;;5492069;26;20005;-92
2024/04/08 04:23:40;;;;;;;8.55;3.40;;;14.30;99.90;;;;;;5496737;26;20026;-92
2024/04/08 04:26:07;;;;;;;8.65;3.72;;;14.40;99.90;;;;;;5484640;26;20485;-92
2024/04/08 04:28:34;;;;;;;5.93;2.15;;;14.40;99.90;;;;;;5482864;26;19998;-92
2024/04/08 04:31:01;;;;;;;11.93;3.08;;;14.30;99.90;;;;;;5505188;26;20033;-92
2024/04/08 04:33:28;;;;;;;10.65;3.90;;;14.30;99.90;;;;;;5454935;26;20026;-92
2024/04/08 04:35:59;;;;;;;9.93;2.83;;;14.30;99.90;;;;;;5508694;26;20008;-92
2024/04/08 04:38:26;;;;;;;9.15;2.92;;;14.20;99.90;;;;;;5488864;25;20361;-92
2024/04/08 04:41:03;;;;;;;6.53;2.60;;;14.20;99.90;;;;;;5485116;25;19994;-92
2024/04/08 04:43:30;;;;;;;10.30;3.97;;;14.20;99.90;;;;;;5494740;26;20000;-92
2024/04/08 04:45:58;;;;;;;7.97;2.67;;;14.20;99.90;;;;;;5496597;26;20026;-92
2024/04/08 04:48:25;;;;;;;7.00;2.70;;;14.20;99.90;;;;;;5484494;26;20009;-92
2024/04/08 04:50:52;;;;;;;12.05;3.60;;;14.20;99.90;;;;;;5490237;26;20116;-92
2024/04/08 04:53:19;;;;;;;9.68;4.60;;;14.20;99.90;;;;;;5497531;26;19998;-92
2024/04/08 04:55:56;;;;;;;7.57;2.70;;;14.20;99.90;;;;;;5497870;26;19998;-92
2024/04/08 04:58:23;;;;;;;10.45;5.00;;;14.20;99.90;;;;;;5483122;26;20027;-92
2024/04/08 05:00:50;;;;;;;8.68;2.50;;;14.20;99.90;;;;;;5503096;26;20045;-92
2024/04/08 05:03:18;;;;;;;11.98;4.78;;;14.20;99.90;;;;;;5502130;26;20004;-92
2024/04/08 05:05:52;;;;;;;9.75;4.65;;;14.20;99.90;;;;;;5495615;25;20022;-93
2024/04/08 05:08:19;;;;;;;7.13;2.22;;;14.30;99.90;;;;;;5501877;26;20008;-92
2024/04/08 05:10:46;;;;;;;9.25;4.55;;;14.20;99.90;;;;;;5490537;26;20023;-92
2024/04/08 05:13:16;;;;;;;6.75;2.30;;;14.30;99.90;;;;;;5494375;26;19994;-92
2024/04/08 05:16:00;;;;;;;6.20;2.53;;;14.20;99.90;;;;;;5498591;26;19994;-92
2024/04/08 05:18:28;;;;;;;10.15;4.82;;;14.20;99.90;;;;;;5495379;25;20021;-91
2024/04/08 05:20:56;;;;;;;9.23;3.17;;;14.20;99.90;;;;;;5482759;26;20034;-92
2024/04/08 05:23:26;;;;;;;10.18;4.57;;;14.20;99.90;;;;;;5489536;26;20008;-92
2024/04/08 05:25:54;;;;;;;9.55;5.10;;;14.30;99.90;;;;;;5483287;26;20057;-92
2024/04/08 05:28:22;;;;;;;9.73;4.75;;;14.30;99.90;;;;;;5492972;26;20475;-92
2024/04/08 05:30:49;;;;;;;9.20;4.70;;;14.40;99.90;;;;;;5483641;26;20022;-93
2024/04/08 05:33:16;;;;;;;6.28;2.63;;;14.40;99.90;;;;;;5484131;26;19994;-92
2024/04/08 05:35:44;;;;;;;8.27;2.80;;;14.30;99.90;;;;;;5499682;26;20018;-92
2024/04/08 05:38:11;;;;;;;11.50;4.65;;;14.30;99.90;;;;;;5498113;26;20022;-91
2024/04/08 05:40:39;;;;;;;8.00;3.08;;;14.30;99.90;;;;;;5492123;25;20029;-93
2024/04/08 05:43:06;;;;;;;10.10;3.00;;;14.30;99.90;;;;;;5495840;26;20494;-93
2024/04/08 05:45:34;;;;;;;8.32;3.33;;;14.30;99.90;;;;;;5494137;26;19997;-92
2024/04/08 05:48:01;;;;;;;10.10;3.75;;;14.30;99.90;;;;;;5510346;26;19994;-93
2024/04/08 05:50:28;;;;;;;10.15;5.38;;;14.20;99.90;;;;;;5490434;26;20045;-92
2024/04/08 05:52:55;;;;;;;11.00;5.28;;;14.30;99.90;;;;;;5498053;26;20026;-93
2024/04/08 05:55:22;;;;;;;7.10;3.05;;;14.40;99.90;;;;;;5507618;26;20002;-93
2024/04/08 05:57:49;;;;;;;8.38;3.03;;;14.40;99.90;;;;;;5493963;26;20327;-93
2024/04/08 06:00:18;;;;;;;13.02;5.50;;;14.30;99.90;;;;;;5503139;26;20005;-93
2024/04/08 06:02:50;;;;;;;9.38;2.85;;;14.40;99.90;;;;;;5490426;26;20005;-93
2024/04/08 06:05:24;;;;;;;9.90;5.25;;;14.30;99.90;;;;;;5487182;26;20045;-93
2024/04/08 06:07:50;;;;;;;8.55;3.33;;;14.40;99.90;;;;;;5489480;26;20042;-92
2024/04/08 06:10:18;;;;;;;10.85;5.57;;;14.30;99.90;;;;;;5494008;26;19997;-92
2024/04/08 06:12:46;;;;;;;9.23;5.38;;;14.40;99.90;;;;;;5501669;26;20025;-92
2024/04/08 06:15:13;;;;;;;8.68;3.17;;;14.40;99.90;;;;;;5490402;26;20378;-92
2024/04/08 06:17:41;;;;;;;11.32;3.60;;;14.40;99.90;;;;;;5495279;26;20006;-93
2024/04/08 06:20:09;;;;;;;11.70;5.75;;;14.40;99.90;;;;;;5481199;26;20012;-92
2024/04/08 06:22:36;;;;;;;11.00;5.90;;;14.40;99.90;;;;;;5489308;26;20020;-92
2024/04/08 06:25:04;;;;;;;8.07;3.08;;;14.40;99.90;;;;;;5506703;26;20389;-92
2024/04/08 06:27:31;;;;;;;12.45;6.60;;;14.40;99.90;;;;;;5491887;26;20033;-91
2024/04/08 06:29:58;;;;;;;11.63;6.85;;;14.50;99.90;;;;;;5491853;26;20004;-92
2024/04/08 06:32:25;;;;;;;9.40;3.30;;;14.50;99.90;;;;;;5496781;26;20022;-92
2024/04/08 06:34:52;;;;;;;11.85;6.00;;;14.50;99.90;;;;;;5493642;26;19994;-93
2024/04/08 06:37:20;;;;;;;7.40;3.33;;;14.40;99.90;;;;;;5491814;26;20359;-93
2024/04/08 06:39:47;;;;;;;11.70;5.85;;;14.40;99.90;;;;;;5482551;26;20008;-91
2024/04/08 06:42:18;;;;;;;8.55;3.20;;;14.50;99.90;;;;;;5494431;26;20016;-92
2024/04/08 06:44:48;;;;;;;11.38;4.43;;;14.40;99.90;;;;;;5483470;26;20022;-91
2024/04/08 06:47:15;;;;;;;10.98;5.97;;;14.40;99.90;;;;;;5485370;26;20034;-91
2024/04/08 06:49:46;;;;;;;11.18;5.88;;;14.50;99.90;;;;;;5498285;26;19994;-93
2024/04/08 06:52:13;;;;;;;12.15;6.55;;;14.50;99.90;;;;;;5488254;25;20370;-92
2024/04/08 06:54:40;;;;;;;10.50;5.80;;;14.50;99.90;;;;;;5496695;26;20043;-92
2024/04/08 06:57:07;;;;;;;9.65;3.65;;;14.50;99.90;;;;;;5484984;26;20488;-92
2024/04/08 06:59:34;;;;;;;11.98;3.85;;;14.40;99.90;;;;;;5487131;26;20382;-92
2024/04/08 07:02:03;;;;;;;10.45;5.88;;;14.40;99.90;;;;;;5500736;26;20022;-91
2024/04/08 07:04:30;;;;;;;11.98;6.35;;;14.40;99.90;;;;;;5493015;25;20034;-92
2024/04/08 07:06:58;;;;;;;8.88;3.35;;;14.40;99.90;;;;;;5486117;26;20002;-92
2024/04/08 07:09:27;;;;;;;10.40;5.80;;;14.40;99.90;;;;;;5484368;25;19994;-92
2024/04/08 07:11:57;;;;;;;10.55;5.95;;;14.40;99.90;;;;;;5481966;26;19995;-92
2024/04/08 07:14:23;;;;;;;9.05;3.50;;;14.40;99.90;;;;;;5497059;26;20033;-91
2024/04/08 07:16:50;;;;;;;8.23;3.05;;;14.30;99.90;;;;;;5490210;26;20004;-92
2024/04/08 07:19:17;;;;;;;9.07;4.25;;;14.20;99.90;;;;;;5489650;26;19994;-92
2024/04/08 07:21:44;;;;;;;8.85;4.45;;;14.10;99.90;;;;;;5493010;26;19998;-92
2024/04/08 07:24:11;;;;;;;10.98;4.45;;;14.10;99.90;;;;;;5498108;26;20005;-92
2024/04/08 07:26:38;;;;;;;14.00;7.60;;;14.10;99.90;;;;;;5488952;26;19998;-92
2024/04/08 07:29:05;;;;;;;11.48;7.70;;;14.10;99.90;;;;;;5485325;26;19998;-92
2024/04/08 07:31:32;;;;;;;9.32;3.92;;;14.20;99.90;;;;;;5488095;26;20034;-91
2024/04/08 07:33:59;;;;;;;12.38;7.47;;;14.20;99.90;;;;;;5486299;26;19993;-92
2024/04/08 07:36:26;;;;;;;10.70;6.85;;;14.30;99.90;;;;;;5491481;26;19993;-92
2024/04/08 07:38:53;;;;;;;11.63;7.70;;;14.40;99.90;;;;;;5492087;26;20493;-93
2024/04/08 07:41:21;;;;;;;11.15;7.47;;;14.50;99.90;;;;;;5487309;26;20390;-92
2024/04/08 07:43:48;;;;;;;12.25;7.72;;;14.70;99.90;;;;;;5487474;26;20012;-91
2024/04/08 07:46:15;;;;;;;11.50;7.03;;;14.70;99.90;;;;;;5484765;26;19999;-92
2024/04/08 07:48:42;;;;;;;8.98;3.10;;;14.80;99.90;;;;;;5480114;26;20500;-92
2024/04/08 07:51:09;;;;;;;8.20;3.55;;;14.80;99.90;;;;;;5482759;26;19994;-91
2024/04/08 07:53:36;;;;;;;9.27;4.35;;;14.80;99.90;;;;;;5485966;26;19997;-92
2024/04/08 07:56:03;;;;;;;9.68;3.88;;;14.70;99.90;;;;;;5496059;26;20037;-91
2024/04/08 07:58:30;;;;;;;11.15;6.78;;;14.70;99.90;;;;;;5483859;26;20012;-92
2024/04/08 08:00:58;;;;;;;8.68;3.78;;;14.70;99.90;;;;;;5482527;26;20006;-93
2024/04/08 08:03:28;;;;;;;12.77;7.03;;;14.70;99.90;;;;;;5479922;26;20005;-92
2024/04/08 08:05:56;;;;;;;10.35;4.60;;;14.80;99.90;;;;;;5488050;26;20002;-92
2024/04/08 08:08:25;;;;;;;8.98;3.30;;;14.80;99.90;;;;;;5479780;26;20012;-92
2024/04/08 08:10:52;;;;;;;11.55;6.32;;;14.80;99.90;;;;;;5502262;26;20008;-92
2024/04/08 08:13:19;;;;;;;11.02;6.43;;;14.80;99.90;;;;;;5484055;26;20358;-91
2024/04/08 08:15:54;;;;;;;8.43;3.22;;;14.90;99.90;;;;;;5482898;26;19994;-91
2024/04/08 08:18:21;;;;;;;11.00;5.97;;;14.90;99.90;;;;;;5481970;26;20002;-92
2024/04/08 08:20:48;;;;;;;10.20;3.67;;;15.00;99.90;;;;;;5505775;26;20029;-92
2024/04/08 08:23:15;;;;;;;9.00;3.83;;;15.00;99.90;;;;;;5490558;26;20007;-91
2024/04/08 08:25:42;;;;;;;11.05;5.75;;;15.00;99.90;;;;;;5491944;26;20004;-92
2024/04/08 08:28:10;;;;;;;11.80;6.95;;;15.10;99.90;;;;;;5491475;26;20002;-91
2024/04/08 08:30:38;;;;;;;9.60;3.38;;;15.20;99.90;;;;;;5488289;26;19997;-91
2024/04/08 08:33:05;;;;;;;11.65;4.45;;;15.20;99.90;;;;;;5497654;26;20041;-92
2024/04/08 08:35:32;;;;;;;10.88;7.10;;;15.20;99.90;;;;;;5506619;26;20033;-92
2024/04/08 08:38:00;;;;;;;11.45;7.57;;;15.30;99.90;;;;;;5483158;26;20012;-92
2024/04/08 08:40:28;;;;;;;11.05;6.05;;;15.50;99.90;;;;;;5495450;26;20038;-91
2024/04/08 08:42:56;;;;;;;9.77;5.68;;;15.50;99.90;;;;;;5507425;26;20049;-92
2024/04/08 08:45:24;;;;;;;12.32;5.88;;;15.60;99.90;;;;;;5496569;26;20008;-91
2024/04/08 08:47:51;;;;;;;10.43;5.50;;;15.60;99.90;;;;;;5504220;26;20352;-92
2024/04/08 08:50:18;;;;;;;10.60;6.00;;;15.70;99.90;;;;;;5498774;26;19998;-91
2024/04/08 08:52:45;;;;;;;10.73;5.47;;;15.70;99.90;;;;;;5491789;26;20019;-92
2024/04/08 08:55:12;;;;;;;8.90;3.67;;;15.70;99.90;;;;;;5491299;26;20002;-91
2024/04/08 08:57:39;;;;;;;9.10;4.85;;;15.70;99.90;;;;;;5493324;26;20034;-91
2024/04/08 09:00:10;;;;;;;7.40;2.63;;;15.70;99.90;;;;;;5502656;26;20030;-91
2024/04/08 09:02:38;;;;;;;7.45;3.10;;;15.70;99.90;;;;;;5493741;26;20394;-91
2024/04/08 09:05:06;;;;;;;8.63;3.00;;;15.70;99.90;;;;;;5492501;26;20046;-91
2024/04/08 09:07:33;;;;;;;9.23;4.57;;;15.70;99.90;;;;;;5510799;26;20272;-92
2024/04/08 09:10:00;;;;;;;9.43;4.47;;;15.80;99.90;;;;;;5501033;26;20005;-92
2024/04/08 09:12:27;;;;;;;7.05;2.63;;;15.90;99.90;;;;;;5511977;26;20028;-92
2024/04/08 09:14:54;;;;;;;8.77;4.85;;;15.90;99.90;;;;;;5496399;26;20017;-93
2024/04/08 09:17:21;;;;;;;9.07;4.90;;;16.00;99.90;;;;;;5489979;26;20003;-92
2024/04/08 09:19:48;;;;;;;8.07;3.38;;;16.10;99.90;;;;;;5491100;26;20009;-92
2024/04/08 09:22:15;;;;;;;9.20;3.40;;;16.20;99.90;;;;;;5487169;26;20758;-92
2024/04/08 09:24:42;;;;;;;8.85;3.17;;;16.30;99.90;;;;;;5510059;26;20684;-92
2024/04/08 09:27:10;;;;;;;8.80;3.55;;;16.40;99.90;;;;;;5507034;25;20486;-93
2024/04/08 09:29:38;;;;;;;9.95;4.57;;;16.50;99.90;;;;;;5504159;26;20035;-92
2024/04/08 09:32:08;;;;;;;7.85;3.88;;;16.70;99.90;;;;;;5494005;26;20026;-92
2024/04/08 09:34:35;;;;;;;9.48;3.28;;;16.90;99.90;;;;;;5487711;26;20022;-92
2024/04/08 09:37:03;;;;;;;7.95;3.22;;;17.10;99.90;;;;;;5488391;26;20002;-93
2024/04/08 09:39:31;;;;;;;8.93;3.38;;;17.30;99.90;;;;;;5481635;26;20034;-92
2024/04/08 09:41:59;;;;;;;7.50;2.95;;;17.40;99.90;;;;;;5497045;26;20113;-93
2024/04/08 09:44:30;;;;;;;9.45;2.97;;;17.50;99.90;;;;;;5488613;26;19994;-92
2024/04/08 09:47:01;;;;;;;6.93;3.35;;;17.70;99.90;;;;;;5494449;26;19998;-92
2024/04/08 09:49:28;;;;;;;9.93;3.97;;;17.80;99.90;;;;;;5491703;26;20001;-92
2024/04/08 09:51:56;;;;;;;9.18;3.20;;;18.00;99.90;;;;;;5489631;26;20475;-93
2024/04/08 09:54:23;;;;;;;8.13;2.50;;;18.10;99.90;;;;;;5498488;26;20037;-94
2024/04/08 09:56:57;;;;;;;9.02;2.97;;;18.20;99.90;;;;;;5489384;26;20465;-93
2024/04/08 09:59:25;;;;;;;8.18;2.22;;;18.30;99.90;;;;;;5490781;26;19998;-94
2024/04/08 10:01:54;;;;;;;7.55;2.70;;;18.20;99.90;;;;;;5498809;26;20010;-94
2024/04/08 10:04:23;;;;;;;5.68;2.53;;;18.20;99.90;;;;;;5503727;25;20034;-94
2024/04/08 10:06:52;;;;;;;7.20;2.60;;;18.20;99.90;;;;;;5488323;26;19994;-94
2024/04/08 10:09:20;;;;;;;10.60;3.05;;;18.20;99.90;;;;;;5487243;26;19998;-95
2024/04/08 10:11:52;;;;;;;9.50;3.10;;;18.20;99.90;;;;;;5493796;26;19994;-93
2024/04/08 10:14:23;;;;;;;9.38;2.70;;;18.30;99.90;;;;;;5489370;26;20001;-93
2024/04/08 10:16:50;;;;;;;7.13;2.58;;;18.20;99.90;;;;;;5483979;26;20018;-94
2024/04/08 10:19:21;;;;;;;6.80;2.15;;;18.20;99.90;;;;;;5494806;26;20040;-94
2024/04/08 10:21:52;;;;;;;8.00;2.85;;;18.40;99.90;;;;;;5489531;26;20204;-93
2024/04/08 10:24:31;;;;;;;7.80;2.70;;;18.60;99.90;;;;;;5506742;25;20380;-94
2024/04/08 10:27:02;;;;;;;5.90;2.22;;;18.70;99.90;;;;;;5486184;26;19994;-93
2024/04/08 10:29:31;;;;;;;7.63;2.53;;;18.70;99.90;;;;;;5491242;26;20505;-94
2024/04/08 10:31:59;;;;;;;7.38;2.30;;;18.80;99.90;;;;;;5483510;26;20824;-94
2024/04/08 10:34:26;;;;;;;6.80;2.35;;;19.00;99.90;;;;;;5485465;26;19998;-93
2024/04/08 10:36:54;;;;;;;9.07;2.25;;;19.10;99.90;;;;;;5502783;26;20030;-94
2024/04/08 10:39:26;;;;;;;7.45;2.45;;;19.30;99.90;;;;;;5488707;26;20128;-93
2024/04/08 10:41:58;;;;;;;9.50;2.83;;;19.30;99.90;;;;;;5501067;26;20016;-93
2024/04/08 10:44:31;;;;;;;8.30;2.50;;;19.40;99.90;;;;;;5493199;26;20005;-94
2024/04/08 10:46:58;;;;;;;6.80;2.50;;;19.40;99.90;;;;;;5479474;26;20043;-94
2024/04/08 10:49:25;;;;;;;8.20;2.53;;;19.40;99.90;;;;;;5478667;26;20439;-94
2024/04/08 10:51:52;;;;;;;6.63;2.35;;;19.40;99.90;;;;;;5480283;26;20480;-93
2024/04/08 10:54:19;;;;;;;7.28;2.33;;;19.40;99.90;;;;;;5495616;26;20016;-94
2024/04/08 10:56:46;;;;;;;8.35;2.97;;;19.40;99.90;;;;;;5493206;26;19994;-93
2024/04/08 10:59:13;;;;;;;6.60;2.30;;;19.40;99.90;;;;;;5483345;26;20013;-93
2024/04/08 11:01:40;;;;;;;7.82;2.33;;;19.40;99.90;;;;;;5493782;26;20006;-94
2024/04/08 11:04:08;;;;;;;8.02;2.20;;;19.50;99.90;;;;;;5483307;26;19998;-93
2024/04/08 11:06:35;;;;;;;6.53;2.00;;;19.70;99.90;;;;;;5480498;25;20022;-93
2024/04/08 11:09:04;;;;;;;7.88;2.40;;;19.90;99.90;;;;;;5478872;26;20341;-93
2024/04/08 11:11:32;;;;;;;6.63;1.98;;;20.10;99.90;;;;;;5479927;26;19998;-93
2024/04/08 11:13:59;;;;;;;7.68;2.20;;;20.10;99.90;;;;;;5481832;26;20556;-95
2024/04/08 11:16:29;;;;;;;9.20;2.33;;;20.00;98.30;;;;;;5484508;26;20022;-93
2024/04/08 11:18:55;;;;;;;6.68;2.25;;;20.00;98.10;;;;;;5485396;26;19998;-94
2024/04/08 11:21:23;;;;;;;7.25;2.25;;;20.00;97.30;;;;;;5479762;26;20002;-94
2024/04/08 11:23:50;;;;;;;6.57;2.33;;;20.00;98.40;;;;;;5480890;26;20029;-94
2024/04/08 11:26:18;;;;;;;7.03;2.40;;;20.20;97.50;;;;;;5487806;26;20464;-94
2024/04/08 11:28:45;;;;;;;8.80;2.30;;;20.30;97.30;;;;;;5490980;26;20008;-93
2024/04/08 11:31:12;;;;;;;6.40;2.22;;;20.40;97.70;;;;;;5483047;26;20520;-92
2024/04/08 11:33:40;;;;;;;6.80;2.38;;;20.40;96.70;;;;;;5509101;26;20356;-93
2024/04/08 11:36:07;;;;;;;7.55;2.70;;;20.40;96.10;;;;;;5492789;26;19998;-93
2024/04/08 11:38:34;;;;;;;7.45;2.50;;;20.40;96.10;;;;;;5479318;26;20033;-93
2024/04/08 11:41:02;;;;;;;6.93;2.40;;;20.40;96.40;;;;;;5478632;26;20008;-93
2024/04/08 11:43:29;;;;;;;7.85;2.75;;;20.40;96.20;;;;;;5493758;26;20037;-94
2024/04/08 11:45:56;;;;;;;7.40;2.53;;;20.30;95.20;;;;;;5492812;26;19998;-94
2024/04/08 11:48:23;;;;;;;6.47;2.20;;;20.40;95.20;;;;;;5485133;26;20026;-94
2024/04/08 11:50:50;;;;;;;7.35;2.85;;;20.40;96.00;;;;;;5489744;26;20502;-93
2024/04/08 11:53:17;;;;;;;7.38;2.50;;;20.60;97.70;;;;;;5513094;26;20001;-94
2024/04/08 11:55:44;;;;;;;6.90;2.50;;;20.70;95.40;;;;;;5497756;26;20008;-93
2024/04/08 11:58:11;;;;;;;6.60;2.80;;;20.60;95.20;;;;;;5483985;26;20025;-95
2024/04/08 12:00:38;;;;;;;7.35;2.53;;;20.50;95.60;;;;;;5481809;26;20008;-93
2024/04/08 12:03:07;;;;;;;6.32;2.35;;;20.30;95.10;;;;;;5508531;26;22098;-93
2024/04/08 12:05:34;;;;;;;7.07;2.72;;;20.20;95.40;;;;;;5492573;26;20466;-93
2024/04/08 12:08:03;;;;;;;7.50;2.40;;;20.20;97.70;;;;;;5489490;26;20008;-93
2024/04/08 12:10:29;;;;;;;5.70;2.28;;;20.40;97.40;;;;;;5490956;26;20000;-94
2024/04/08 12:13:13;;;;;;;7.68;2.65;;;20.50;95.60;;;;;;5497660;26;19995;-93
2024/04/08 12:15:40;;;;;;;6.45;2.30;;;20.70;95.30;;;;;;5493053;26;19998;-94
2024/04/08 12:18:07;;;;;;;7.55;2.47;;;20.70;94.80;;;;;;5487224;26;20364;-94
2024/04/08 12:20:34;;;;;;;7.55;2.33;;;20.70;94.40;;;;;;5487708;26;20450;-94
2024/04/08 12:23:01;;;;;;;7.47;2.38;;;20.70;94.20;;;;;;5485592;26;20038;-94
2024/04/08 12:25:28;;;;;;;6.68;2.25;;;20.70;94.80;;;;;;5487967;26;20026;-94
2024/04/08 12:27:55;;;;;;;6.60;2.15;;;20.70;94.60;;;;;;5495052;26;20013;-94
2024/04/08 12:30:22;;;;;;;6.95;2.30;;;20.70;95.30;;;;;;5493419;26;20004;-94
2024/04/08 12:32:48;;;;;;;6.95;2.60;;;20.70;95.20;;;;;;5492219;26;20009;-94
2024/04/08 12:35:16;;;;;;;7.15;2.33;;;20.70;95.20;;;;;;5492637;26;20458;-93
2024/04/08 12:37:43;;;;;;;8.60;2.45;;;20.60;94.50;;;;;;5494016;26;20012;-93
2024/04/08 12:40:10;;;;;;;6.85;2.47;;;20.60;93.80;;;;;;5487086;26;20002;-92
2024/04/08 12:42:37;;;;;;;8.90;2.72;;;20.50;94.00;;;;;;5504565;25;20012;-94
2024/04/08 12:45:04;;;;;;;7.78;2.50;;;20.60;94.80;;;;;;5463652;26;20449;-93
2024/04/08 12:47:31;;;;;;;7.57;2.35;;;20.50;94.20;;;;;;5491184;26;20000;-94